sensor_id;sensor_type;location;lat;lon;timestamp;P1;durP1;ratioP1;P2;durP2;ratioP2
43664;SDS011;29263;48.172;11.484;2024-01-30T00:01:11;14.67;;;7.33;;
43664;SDS011;29263;48.172;11.484;2024-01-30T00:03:37;16.03;;;6.97;;
43664;SDS011;29263;48.172;11.484;2024-01-30T00:06:05;14.17;;;7.37;;
43664;SDS011;29263;48.172;11.484;2024-01-30T00:08:31;12.07;;;6.60;;
43664;SDS011;29263;48.172;11.484;2024-01-30T00:10:56;13.57;;;6.20;;
43664;SDS011;29263;48.172;11.484;2024-01-30T00:13:22;20.00;;;7.70;;
43664;SDS011;29263;48.172;11.484;2024-01-30T00:15:47;12.57;;;6.80;;
43664;SDS011;29263;48.172;11.484;2024-01-30T00:18:13;10.47;;;6.60;;
43664;SDS011;29263;48.172;11.484;2024-01-30T00:20:39;10.87;;;6.07;;
43664;SDS011;29263;48.172;11.484;2024-01-30T00:23:04;11.03;;;6.50;;
43664;SDS011;29263;48.172;11.484;2024-01-30T00:25:30;9.67;;;6.40;;
43664;SDS011;29263;48.172;11.484;2024-01-30T00:27:56;11.20;;;6.17;;
43664;SDS011;29263;48.172;11.484;2024-01-30T00:30:21;14.53;;;7.20;;
43664;SDS011;29263;48.172;11.484;2024-01-30T00:32:47;12.57;;;6.87;;
43664;SDS011;29263;48.172;11.484;2024-01-30T00:35:12;11.17;;;6.50;;
43664;SDS011;29263;48.172;11.484;2024-01-30T00:37:38;10.13;;;6.17;;
43664;SDS011;29263;48.172;11.484;2024-01-30T00:40:04;13.33;;;6.10;;
43664;SDS011;29263;48.172;11.484;2024-01-30T00:42:31;14.40;;;6.63;;
43664;SDS011;29263;48.172;11.484;2024-01-30T00:44:57;12.20;;;5.87;;
43664;SDS011;29263;48.172;11.484;2024-01-30T00:47:22;13.00;;;5.47;;
43664;SDS011;29263;48.172;11.484;2024-01-30T00:49:48;9.10;;;5.30;;
43664;SDS011;29263;48.172;11.484;2024-01-30T00:52:14;9.00;;;4.93;;
43664;SDS011;29263;48.172;11.484;2024-01-30T00:54:40;14.20;;;5.63;;
43664;SDS011;29263;48.172;11.484;2024-01-30T00:57:06;13.23;;;5.50;;
43664;SDS011;29263;48.172;11.484;2024-01-30T00:59:32;10.60;;;5.00;;
43664;SDS011;29263;48.172;11.484;2024-01-30T01:01:58;10.80;;;4.77;;
43664;SDS011;29263;48.172;11.484;2024-01-30T01:04:24;10.80;;;5.60;;
43664;SDS011;29263;48.172;11.484;2024-01-30T01:06:51;9.67;;;5.20;;
43664;SDS011;29263;48.172;11.484;2024-01-30T01:09:17;10.87;;;5.20;;
43664;SDS011;29263;48.172;11.484;2024-01-30T01:11:43;10.10;;;5.53;;
43664;SDS011;29263;48.172;11.484;2024-01-30T01:14:08;8.03;;;5.30;;
43664;SDS011;29263;48.172;11.484;2024-01-30T01:16:34;9.07;;;5.20;;
43664;SDS011;29263;48.172;11.484;2024-01-30T01:19:00;8.67;;;5.00;;
43664;SDS011;29263;48.172;11.484;2024-01-30T01:21:26;13.20;;;5.40;;
43664;SDS011;29263;48.172;11.484;2024-01-30T01:23:51;9.90;;;4.93;;
43664;SDS011;29263;48.172;11.484;2024-01-30T01:26:17;9.63;;;4.43;;
43664;SDS011;29263;48.172;11.484;2024-01-30T01:28:43;9.77;;;5.33;;
43664;SDS011;29263;48.172;11.484;2024-01-30T01:31:08;10.03;;;4.30;;
43664;SDS011;29263;48.172;11.484;2024-01-30T01:33:34;6.17;;;4.13;;
43664;SDS011;29263;48.172;11.484;2024-01-30T01:36:02;7.87;;;4.73;;
43664;SDS011;29263;48.172;11.484;2024-01-30T01:38:28;10.47;;;4.30;;
43664;SDS011;29263;48.172;11.484;2024-01-30T01:40:53;8.97;;;4.67;;
43664;SDS011;29263;48.172;11.484;2024-01-30T01:43:19;6.70;;;4.00;;
43664;SDS011;29263;48.172;11.484;2024-01-30T01:45:45;6.87;;;4.60;;
43664;SDS011;29263;48.172;11.484;2024-01-30T01:48:11;8.23;;;3.80;;
43664;SDS011;29263;48.172;11.484;2024-01-30T01:50:37;6.90;;;3.80;;
43664;SDS011;29263;48.172;11.484;2024-01-30T01:53:03;8.27;;;4.27;;
43664;SDS011;29263;48.172;11.484;2024-01-30T01:55:32;7.13;;;4.25;;
43664;SDS011;29263;48.172;11.484;2024-01-30T01:58:00;8.57;;;4.00;;
43664;SDS011;29263;48.172;11.484;2024-01-30T02:00:26;7.33;;;4.03;;
43664;SDS011;29263;48.172;11.484;2024-01-30T02:02:51;6.43;;;3.97;;
43664;SDS011;29263;48.172;11.484;2024-01-30T02:05:19;7.87;;;3.70;;
43664;SDS011;29263;48.172;11.484;2024-01-30T02:07:46;6.40;;;3.93;;
43664;SDS011;29263;48.172;11.484;2024-01-30T02:10:12;6.27;;;3.80;;
43664;SDS011;29263;48.172;11.484;2024-01-30T02:12:38;5.93;;;3.97;;
43664;SDS011;29263;48.172;11.484;2024-01-30T02:15:04;6.73;;;3.90;;
43664;SDS011;29263;48.172;11.484;2024-01-30T02:17:31;6.40;;;4.00;;
43664;SDS011;29263;48.172;11.484;2024-01-30T02:19:56;6.37;;;3.33;;
43664;SDS011;29263;48.172;11.484;2024-01-30T02:22:22;7.50;;;3.43;;
43664;SDS011;29263;48.172;11.484;2024-01-30T02:24:48;6.80;;;3.57;;
43664;SDS011;29263;48.172;11.484;2024-01-30T02:27:14;6.60;;;3.50;;
43664;SDS011;29263;48.172;11.484;2024-01-30T02:29:40;7.07;;;3.63;;
43664;SDS011;29263;48.172;11.484;2024-01-30T02:32:06;8.57;;;3.50;;
43664;SDS011;29263;48.172;11.484;2024-01-30T02:34:32;6.60;;;3.43;;
43664;SDS011;29263;48.172;11.484;2024-01-30T02:36:58;7.63;;;3.70;;
43664;SDS011;29263;48.172;11.484;2024-01-30T02:39:24;7.50;;;3.87;;
43664;SDS011;29263;48.172;11.484;2024-01-30T02:41:50;6.80;;;3.57;;
43664;SDS011;29263;48.172;11.484;2024-01-30T02:44:16;7.80;;;3.40;;
43664;SDS011;29263;48.172;11.484;2024-01-30T02:46:41;9.50;;;3.50;;
43664;SDS011;29263;48.172;11.484;2024-01-30T02:49:07;7.10;;;3.03;;
43664;SDS011;29263;48.172;11.484;2024-01-30T02:51:32;8.07;;;3.93;;
43664;SDS011;29263;48.172;11.484;2024-01-30T02:53:58;6.37;;;3.43;;
43664;SDS011;29263;48.172;11.484;2024-01-30T02:56:24;7.40;;;3.90;;
43664;SDS011;29263;48.172;11.484;2024-01-30T02:58:49;6.50;;;3.10;;
43664;SDS011;29263;48.172;11.484;2024-01-30T03:01:15;4.80;;;3.07;;
43664;SDS011;29263;48.172;11.484;2024-01-30T03:03:41;4.80;;;2.73;;
43664;SDS011;29263;48.172;11.484;2024-01-30T03:06:08;7.57;;;3.17;;
43664;SDS011;29263;48.172;11.484;2024-01-30T03:08:34;4.33;;;2.80;;
43664;SDS011;29263;48.172;11.484;2024-01-30T03:11:00;6.40;;;3.13;;
43664;SDS011;29263;48.172;11.484;2024-01-30T03:13:26;6.00;;;3.17;;
43664;SDS011;29263;48.172;11.484;2024-01-30T03:15:52;5.63;;;2.80;;
43664;SDS011;29263;48.172;11.484;2024-01-30T03:18:17;6.07;;;3.20;;
43664;SDS011;29263;48.172;11.484;2024-01-30T03:20:43;7.10;;;3.80;;
43664;SDS011;29263;48.172;11.484;2024-01-30T03:23:08;5.83;;;3.57;;
43664;SDS011;29263;48.172;11.484;2024-01-30T03:25:34;7.37;;;3.47;;
43664;SDS011;29263;48.172;11.484;2024-01-30T03:28:00;6.70;;;2.70;;
43664;SDS011;29263;48.172;11.484;2024-01-30T03:30:26;4.57;;;2.83;;
43664;SDS011;29263;48.172;11.484;2024-01-30T03:32:51;4.70;;;2.63;;
43664;SDS011;29263;48.172;11.484;2024-01-30T03:35:18;3.30;;;2.40;;
43664;SDS011;29263;48.172;11.484;2024-01-30T03:37:44;6.13;;;3.07;;
43664;SDS011;29263;48.172;11.484;2024-01-30T03:40:10;4.57;;;2.30;;
43664;SDS011;29263;48.172;11.484;2024-01-30T03:42:35;6.67;;;2.50;;
43664;SDS011;29263;48.172;11.484;2024-01-30T03:45:01;4.87;;;2.60;;
43664;SDS011;29263;48.172;11.484;2024-01-30T03:47:27;4.60;;;3.10;;
43664;SDS011;29263;48.172;11.484;2024-01-30T03:49:53;3.63;;;2.30;;
43664;SDS011;29263;48.172;11.484;2024-01-30T03:52:18;7.23;;;2.80;;
43664;SDS011;29263;48.172;11.484;2024-01-30T03:54:44;5.37;;;3.03;;
43664;SDS011;29263;48.172;11.484;2024-01-30T03:57:09;3.70;;;2.50;;
43664;SDS011;29263;48.172;11.484;2024-01-30T03:59:35;4.07;;;2.50;;
43664;SDS011;29263;48.172;11.484;2024-01-30T04:02:01;4.57;;;2.37;;
43664;SDS011;29263;48.172;11.484;2024-01-30T04:04:26;3.70;;;2.40;;
43664;SDS011;29263;48.172;11.484;2024-01-30T04:06:52;5.10;;;2.30;;
43664;SDS011;29263;48.172;11.484;2024-01-30T04:09:17;5.57;;;2.67;;
43664;SDS011;29263;48.172;11.484;2024-01-30T04:11:43;4.33;;;2.13;;
43664;SDS011;29263;48.172;11.484;2024-01-30T04:14:09;4.07;;;2.70;;
43664;SDS011;29263;48.172;11.484;2024-01-30T04:16:35;5.20;;;2.27;;
43664;SDS011;29263;48.172;11.484;2024-01-30T04:19:01;4.90;;;2.43;;
43664;SDS011;29263;48.172;11.484;2024-01-30T04:21:27;4.73;;;2.60;;
43664;SDS011;29263;48.172;11.484;2024-01-30T04:23:52;5.67;;;2.53;;
43664;SDS011;29263;48.172;11.484;2024-01-30T04:26:18;4.37;;;2.37;;
43664;SDS011;29263;48.172;11.484;2024-01-30T04:28:44;4.17;;;2.60;;
43664;SDS011;29263;48.172;11.484;2024-01-30T04:31:10;4.17;;;2.20;;
43664;SDS011;29263;48.172;11.484;2024-01-30T04:33:36;5.10;;;3.00;;
43664;SDS011;29263;48.172;11.484;2024-01-30T04:36:02;3.63;;;2.47;;
43664;SDS011;29263;48.172;11.484;2024-01-30T04:38:29;5.13;;;2.60;;
43664;SDS011;29263;48.172;11.484;2024-01-30T04:40:55;4.97;;;3.17;;
43664;SDS011;29263;48.172;11.484;2024-01-30T04:43:21;2.80;;;2.23;;
43664;SDS011;29263;48.172;11.484;2024-01-30T04:45:46;6.10;;;3.00;;
43664;SDS011;29263;48.172;11.484;2024-01-30T04:48:12;4.70;;;2.30;;
43664;SDS011;29263;48.172;11.484;2024-01-30T04:50:38;5.10;;;2.50;;
43664;SDS011;29263;48.172;11.484;2024-01-30T04:53:04;4.40;;;2.40;;
43664;SDS011;29263;48.172;11.484;2024-01-30T04:55:30;5.40;;;2.20;;
43664;SDS011;29263;48.172;11.484;2024-01-30T04:57:55;14.80;;;2.97;;
43664;SDS011;29263;48.172;11.484;2024-01-30T05:00:21;4.53;;;2.60;;
43664;SDS011;29263;48.172;11.484;2024-01-30T05:02:46;5.23;;;2.27;;
43664;SDS011;29263;48.172;11.484;2024-01-30T05:05:12;2.83;;;2.07;;
43664;SDS011;29263;48.172;11.484;2024-01-30T05:07:38;3.37;;;2.43;;
43664;SDS011;29263;48.172;11.484;2024-01-30T05:10:06;4.60;;;2.37;;
43664;SDS011;29263;48.172;11.484;2024-01-30T05:12:31;4.33;;;2.23;;
43664;SDS011;29263;48.172;11.484;2024-01-30T05:14:57;4.90;;;2.50;;
43664;SDS011;29263;48.172;11.484;2024-01-30T05:17:23;5.13;;;2.80;;
43664;SDS011;29263;48.172;11.484;2024-01-30T05:19:48;4.57;;;2.47;;
43664;SDS011;29263;48.172;11.484;2024-01-30T05:22:14;4.77;;;2.60;;
43664;SDS011;29263;48.172;11.484;2024-01-30T05:24:40;5.43;;;2.60;;
43664;SDS011;29263;48.172;11.484;2024-01-30T05:27:09;4.13;;;2.40;;
43664;SDS011;29263;48.172;11.484;2024-01-30T05:29:35;6.03;;;2.43;;
43664;SDS011;29263;48.172;11.484;2024-01-30T05:32:01;5.67;;;2.73;;
43664;SDS011;29263;48.172;11.484;2024-01-30T05:34:27;2.77;;;1.60;;
43664;SDS011;29263;48.172;11.484;2024-01-30T05:36:52;4.57;;;2.13;;
43664;SDS011;29263;48.172;11.484;2024-01-30T05:39:18;2.70;;;2.30;;
43664;SDS011;29263;48.172;11.484;2024-01-30T05:41:43;5.60;;;2.10;;
43664;SDS011;29263;48.172;11.484;2024-01-30T05:44:09;6.30;;;2.40;;
43664;SDS011;29263;48.172;11.484;2024-01-30T05:46:35;3.93;;;2.40;;
43664;SDS011;29263;48.172;11.484;2024-01-30T05:49:01;4.37;;;1.80;;
43664;SDS011;29263;48.172;11.484;2024-01-30T05:51:26;4.37;;;2.40;;
43664;SDS011;29263;48.172;11.484;2024-01-30T05:53:53;2.80;;;1.97;;
43664;SDS011;29263;48.172;11.484;2024-01-30T05:56:19;4.03;;;2.00;;
43664;SDS011;29263;48.172;11.484;2024-01-30T05:58:44;3.67;;;2.40;;
43664;SDS011;29263;48.172;11.484;2024-01-30T06:01:10;3.97;;;1.57;;
43664;SDS011;29263;48.172;11.484;2024-01-30T06:03:36;4.10;;;2.47;;
43664;SDS011;29263;48.172;11.484;2024-01-30T06:06:01;2.83;;;2.33;;
43664;SDS011;29263;48.172;11.484;2024-01-30T06:08:27;3.77;;;1.97;;
43664;SDS011;29263;48.172;11.484;2024-01-30T06:10:53;5.20;;;2.33;;
43664;SDS011;29263;48.172;11.484;2024-01-30T06:13:18;5.37;;;2.33;;
43664;SDS011;29263;48.172;11.484;2024-01-30T06:15:44;4.90;;;2.50;;
43664;SDS011;29263;48.172;11.484;2024-01-30T06:18:10;5.97;;;2.30;;
43664;SDS011;29263;48.172;11.484;2024-01-30T06:20:35;3.57;;;2.50;;
43664;SDS011;29263;48.172;11.484;2024-01-30T06:23:01;4.47;;;2.23;;
43664;SDS011;29263;48.172;11.484;2024-01-30T06:25:26;5.17;;;2.47;;
43664;SDS011;29263;48.172;11.484;2024-01-30T06:27:52;5.17;;;2.40;;
43664;SDS011;29263;48.172;11.484;2024-01-30T06:30:18;3.63;;;2.03;;
43664;SDS011;29263;48.172;11.484;2024-01-30T06:32:43;3.57;;;2.03;;
43664;SDS011;29263;48.172;11.484;2024-01-30T06:35:09;6.30;;;1.90;;
43664;SDS011;29263;48.172;11.484;2024-01-30T06:37:35;4.83;;;2.13;;
43664;SDS011;29263;48.172;11.484;2024-01-30T06:40:01;4.50;;;2.07;;
43664;SDS011;29263;48.172;11.484;2024-01-30T06:42:27;5.00;;;2.50;;
43664;SDS011;29263;48.172;11.484;2024-01-30T06:44:53;4.10;;;2.53;;
43664;SDS011;29263;48.172;11.484;2024-01-30T06:47:18;6.87;;;2.60;;
43664;SDS011;29263;48.172;11.484;2024-01-30T06:49:44;3.97;;;2.13;;
43664;SDS011;29263;48.172;11.484;2024-01-30T06:52:10;5.30;;;2.60;;
43664;SDS011;29263;48.172;11.484;2024-01-30T06:54:36;2.70;;;1.83;;
43664;SDS011;29263;48.172;11.484;2024-01-30T06:57:01;5.47;;;2.70;;
43664;SDS011;29263;48.172;11.484;2024-01-30T06:59:27;5.23;;;2.60;;
43664;SDS011;29263;48.172;11.484;2024-01-30T07:01:53;3.53;;;2.33;;
43664;SDS011;29263;48.172;11.484;2024-01-30T07:04:19;4.43;;;2.30;;
43664;SDS011;29263;48.172;11.484;2024-01-30T07:06:44;3.60;;;2.07;;
43664;SDS011;29263;48.172;11.484;2024-01-30T07:09:10;4.73;;;2.60;;
43664;SDS011;29263;48.172;11.484;2024-01-30T07:11:40;4.50;;;2.70;;
43664;SDS011;29263;48.172;11.484;2024-01-30T07:14:07;4.97;;;2.83;;
43664;SDS011;29263;48.172;11.484;2024-01-30T07:16:34;7.20;;;2.50;;
43664;SDS011;29263;48.172;11.484;2024-01-30T07:18:59;4.23;;;2.40;;
43664;SDS011;29263;48.172;11.484;2024-01-30T07:21:25;3.93;;;2.10;;
43664;SDS011;29263;48.172;11.484;2024-01-30T07:23:56;6.00;;;2.40;;
43664;SDS011;29263;48.172;11.484;2024-01-30T07:26:22;4.18;;;2.42;;
43664;SDS011;29263;48.172;11.484;2024-01-30T07:28:47;4.03;;;2.33;;
43664;SDS011;29263;48.172;11.484;2024-01-30T07:31:13;3.90;;;2.30;;
43664;SDS011;29263;48.172;11.484;2024-01-30T07:33:39;8.57;;;2.60;;
43664;SDS011;29263;48.172;11.484;2024-01-30T07:36:04;6.50;;;2.43;;
43664;SDS011;29263;48.172;11.484;2024-01-30T07:38:33;4.13;;;2.20;;
43664;SDS011;29263;48.172;11.484;2024-01-30T07:40:58;4.37;;;1.87;;
43664;SDS011;29263;48.172;11.484;2024-01-30T07:43:24;5.23;;;2.43;;
43664;SDS011;29263;48.172;11.484;2024-01-30T07:45:50;8.00;;;2.17;;
43664;SDS011;29263;48.172;11.484;2024-01-30T07:48:15;7.60;;;2.20;;
43664;SDS011;29263;48.172;11.484;2024-01-30T07:50:41;6.80;;;2.00;;
43664;SDS011;29263;48.172;11.484;2024-01-30T07:53:07;4.37;;;2.10;;
43664;SDS011;29263;48.172;11.484;2024-01-30T07:55:32;4.60;;;2.57;;
43664;SDS011;29263;48.172;11.484;2024-01-30T07:57:58;6.33;;;3.00;;
43664;SDS011;29263;48.172;11.484;2024-01-30T08:00:24;7.83;;;3.73;;
43664;SDS011;29263;48.172;11.484;2024-01-30T08:02:49;17.10;;;4.13;;
43664;SDS011;29263;48.172;11.484;2024-01-30T08:05:15;7.70;;;3.73;;
43664;SDS011;29263;48.172;11.484;2024-01-30T08:07:41;9.57;;;2.87;;
43664;SDS011;29263;48.172;11.484;2024-01-30T08:10:07;9.17;;;2.63;;
43664;SDS011;29263;48.172;11.484;2024-01-30T08:12:33;9.87;;;2.83;;
43664;SDS011;29263;48.172;11.484;2024-01-30T08:14:59;10.07;;;3.63;;
43664;SDS011;29263;48.172;11.484;2024-01-30T08:17:24;5.80;;;2.67;;
43664;SDS011;29263;48.172;11.484;2024-01-30T08:19:50;9.13;;;3.07;;
43664;SDS011;29263;48.172;11.484;2024-01-30T08:22:16;5.13;;;2.43;;
43664;SDS011;29263;48.172;11.484;2024-01-30T08:24:41;6.73;;;2.77;;
43664;SDS011;29263;48.172;11.484;2024-01-30T08:27:07;6.73;;;3.10;;
43664;SDS011;29263;48.172;11.484;2024-01-30T08:29:36;3.97;;;2.55;;
43664;SDS011;29263;48.172;11.484;2024-01-30T08:32:01;5.77;;;3.10;;
43664;SDS011;29263;48.172;11.484;2024-01-30T08:34:27;8.27;;;2.80;;
43664;SDS011;29263;48.172;11.484;2024-01-30T08:36:53;5.33;;;2.47;;
43664;SDS011;29263;48.172;11.484;2024-01-30T08:39:20;9.17;;;2.80;;
43664;SDS011;29263;48.172;11.484;2024-01-30T08:41:45;5.93;;;2.77;;
43664;SDS011;29263;48.172;11.484;2024-01-30T08:44:11;5.90;;;3.03;;
43664;SDS011;29263;48.172;11.484;2024-01-30T08:46:56;6.23;;;2.80;;
43664;SDS011;29263;48.172;11.484;2024-01-30T08:49:22;7.03;;;3.37;;
43664;SDS011;29263;48.172;11.484;2024-01-30T08:51:47;10.10;;;3.10;;
43664;SDS011;29263;48.172;11.484;2024-01-30T08:54:13;5.10;;;2.77;;
43664;SDS011;29263;48.172;11.484;2024-01-30T08:56:39;4.40;;;2.97;;
43664;SDS011;29263;48.172;11.484;2024-01-30T08:59:05;8.87;;;4.30;;
43664;SDS011;29263;48.172;11.484;2024-01-30T09:01:30;5.80;;;2.97;;
43664;SDS011;29263;48.172;11.484;2024-01-30T09:03:56;7.87;;;3.43;;
43664;SDS011;29263;48.172;11.484;2024-01-30T09:06:21;8.60;;;3.77;;
43664;SDS011;29263;48.172;11.484;2024-01-30T09:08:47;7.40;;;3.33;;
43664;SDS011;29263;48.172;11.484;2024-01-30T09:11:13;5.97;;;3.07;;
43664;SDS011;29263;48.172;11.484;2024-01-30T09:13:40;7.10;;;2.83;;
43664;SDS011;29263;48.172;11.484;2024-01-30T09:16:06;8.70;;;3.50;;
43664;SDS011;29263;48.172;11.484;2024-01-30T09:18:32;8.27;;;3.40;;
43664;SDS011;29263;48.172;11.484;2024-01-30T09:20:58;5.90;;;3.10;;
43664;SDS011;29263;48.172;11.484;2024-01-30T09:23:24;10.00;;;3.17;;
43664;SDS011;29263;48.172;11.484;2024-01-30T09:25:50;5.93;;;3.13;;
43664;SDS011;29263;48.172;11.484;2024-01-30T09:28:16;5.97;;;2.73;;
43664;SDS011;29263;48.172;11.484;2024-01-30T09:30:42;6.27;;;3.03;;
43664;SDS011;29263;48.172;11.484;2024-01-30T09:33:08;7.77;;;3.37;;
43664;SDS011;29263;48.172;11.484;2024-01-30T09:35:34;7.53;;;3.53;;
43664;SDS011;29263;48.172;11.484;2024-01-30T09:38:01;4.60;;;3.03;;
43664;SDS011;29263;48.172;11.484;2024-01-30T09:40:27;5.50;;;2.90;;
43664;SDS011;29263;48.172;11.484;2024-01-30T09:42:53;5.30;;;2.97;;
43664;SDS011;29263;48.172;11.484;2024-01-30T09:45:20;10.87;;;2.90;;
43664;SDS011;29263;48.172;11.484;2024-01-30T09:47:49;6.13;;;2.63;;
43664;SDS011;29263;48.172;11.484;2024-01-30T09:50:15;5.47;;;2.73;;
43664;SDS011;29263;48.172;11.484;2024-01-30T09:52:42;6.07;;;2.63;;
43664;SDS011;29263;48.172;11.484;2024-01-30T09:55:09;5.00;;;2.90;;
43664;SDS011;29263;48.172;11.484;2024-01-30T09:57:35;9.97;;;3.20;;
43664;SDS011;29263;48.172;11.484;2024-01-30T10:00:01;4.70;;;2.73;;
43664;SDS011;29263;48.172;11.484;2024-01-30T10:02:29;7.63;;;3.57;;
43664;SDS011;29263;48.172;11.484;2024-01-30T10:04:56;5.13;;;3.57;;
43664;SDS011;29263;48.172;11.484;2024-01-30T10:07:22;7.60;;;3.70;;
43664;SDS011;29263;48.172;11.484;2024-01-30T10:09:48;6.27;;;3.60;;
43664;SDS011;29263;48.172;11.484;2024-01-30T10:12:14;6.83;;;3.67;;
43664;SDS011;29263;48.172;11.484;2024-01-30T10:14:40;7.00;;;2.63;;
43664;SDS011;29263;48.172;11.484;2024-01-30T10:17:07;9.67;;;3.80;;
43664;SDS011;29263;48.172;11.484;2024-01-30T10:19:39;8.77;;;3.97;;
43664;SDS011;29263;48.172;11.484;2024-01-30T10:22:06;10.93;;;3.53;;
43664;SDS011;29263;48.172;11.484;2024-01-30T10:24:34;8.07;;;3.10;;
43664;SDS011;29263;48.172;11.484;2024-01-30T10:27:00;4.83;;;2.50;;
43664;SDS011;29263;48.172;11.484;2024-01-30T10:29:26;6.40;;;2.60;;
43664;SDS011;29263;48.172;11.484;2024-01-30T10:34:24;4.13;;;2.20;;
43664;SDS011;29263;48.172;11.484;2024-01-30T10:36:51;7.73;;;2.67;;
43664;SDS011;29263;48.172;11.484;2024-01-30T10:39:43;9.40;;;2.50;;
43664;SDS011;29263;48.172;11.484;2024-01-30T10:42:18;7.60;;;3.73;;
43664;SDS011;29263;48.172;11.484;2024-01-30T10:44:48;3.67;;;1.80;;
43664;SDS011;29263;48.172;11.484;2024-01-30T10:47:35;3.87;;;1.90;;
43664;SDS011;29263;48.172;11.484;2024-01-30T10:50:02;2.60;;;1.50;;
43664;SDS011;29263;48.172;11.484;2024-01-30T10:52:32;2.57;;;1.47;;
43664;SDS011;29263;48.172;11.484;2024-01-30T10:54:58;2.83;;;1.37;;
43664;SDS011;29263;48.172;11.484;2024-01-30T10:57:27;1.87;;;0.90;;
43664;SDS011;29263;48.172;11.484;2024-01-30T10:59:53;1.80;;;1.00;;
43664;SDS011;29263;48.172;11.484;2024-01-30T11:02:22;1.60;;;0.90;;
43664;SDS011;29263;48.172;11.484;2024-01-30T11:04:49;2.17;;;1.10;;
43664;SDS011;29263;48.172;11.484;2024-01-30T11:07:17;2.13;;;1.03;;
43664;SDS011;29263;48.172;11.484;2024-01-30T11:09:51;1.87;;;1.30;;
43664;SDS011;29263;48.172;11.484;2024-01-30T11:12:30;2.07;;;1.20;;
43664;SDS011;29263;48.172;11.484;2024-01-30T11:15:10;3.37;;;1.80;;
43664;SDS011;29263;48.172;11.484;2024-01-30T11:17:54;5.07;;;1.23;;
43664;SDS011;29263;48.172;11.484;2024-01-30T11:20:22;4.77;;;1.30;;
43664;SDS011;29263;48.172;11.484;2024-01-30T11:22:51;3.97;;;1.00;;
43664;SDS011;29263;48.172;11.484;2024-01-30T11:25:19;3.90;;;1.20;;
43664;SDS011;29263;48.172;11.484;2024-01-30T11:27:46;5.50;;;1.40;;
43664;SDS011;29263;48.172;11.484;2024-01-30T11:30:23;4.03;;;1.23;;
43664;SDS011;29263;48.172;11.484;2024-01-30T11:35:40;6.90;;;1.30;;
43664;SDS011;29263;48.172;11.484;2024-01-30T11:38:15;2.63;;;1.30;;
43664;SDS011;29263;48.172;11.484;2024-01-30T11:40:41;3.60;;;1.20;;
43664;SDS011;29263;48.172;11.484;2024-01-30T11:43:08;3.70;;;1.20;;
43664;SDS011;29263;48.172;11.484;2024-01-30T11:45:34;4.87;;;1.30;;
43664;SDS011;29263;48.172;11.484;2024-01-30T11:48:01;3.00;;;2.10;;
43664;SDS011;29263;48.172;11.484;2024-01-30T11:50:31;2.00;;;1.20;;
43664;SDS011;29263;48.172;11.484;2024-01-30T11:53:00;10.40;;;2.53;;
43664;SDS011;29263;48.172;11.484;2024-01-30T11:55:26;1.67;;;1.23;;
43664;SDS011;29263;48.172;11.484;2024-01-30T11:57:55;3.83;;;0.83;;
43664;SDS011;29263;48.172;11.484;2024-01-30T12:00:24;1.17;;;0.90;;
43664;SDS011;29263;48.172;11.484;2024-01-30T12:02:53;6.33;;;1.20;;
43664;SDS011;29263;48.172;11.484;2024-01-30T12:05:25;6.40;;;1.50;;
43664;SDS011;29263;48.172;11.484;2024-01-30T12:07:51;1.50;;;0.90;;
43664;SDS011;29263;48.172;11.484;2024-01-30T12:10:17;5.25;;;1.05;;
43664;SDS011;29263;48.172;11.484;2024-01-30T12:12:45;3.60;;;0.90;;
43664;SDS011;29263;48.172;11.484;2024-01-30T12:15:13;2.57;;;1.07;;
43664;SDS011;29263;48.172;11.484;2024-01-30T12:17:39;2.13;;;1.08;;
43664;SDS011;29263;48.172;11.484;2024-01-30T12:20:15;3.50;;;1.15;;
43664;SDS011;29263;48.172;11.484;2024-01-30T12:22:44;1.13;;;0.90;;
43664;SDS011;29263;48.172;11.484;2024-01-30T12:25:12;2.95;;;1.20;;
43664;SDS011;29263;48.172;11.484;2024-01-30T12:27:43;4.00;;;1.13;;
43664;SDS011;29263;48.172;11.484;2024-01-30T12:30:15;3.65;;;1.15;;
43664;SDS011;29263;48.172;11.484;2024-01-30T12:32:42;2.35;;;0.80;;
43664;SDS011;29263;48.172;11.484;2024-01-30T12:37:38;3.00;;;1.02;;
43664;SDS011;29263;48.172;11.484;2024-01-30T12:40:04;3.13;;;1.02;;
43664;SDS011;29263;48.172;11.484;2024-01-30T12:42:31;1.50;;;1.00;;
43664;SDS011;29263;48.172;11.484;2024-01-30T12:44:57;2.28;;;1.00;;
43664;SDS011;29263;48.172;11.484;2024-01-30T12:47:26;1.70;;;1.05;;
43664;SDS011;29263;48.172;11.484;2024-01-30T12:49:52;2.83;;;1.00;;
43664;SDS011;29263;48.172;11.484;2024-01-30T12:52:20;4.17;;;1.00;;
43664;SDS011;29263;48.172;11.484;2024-01-30T12:54:50;4.78;;;1.05;;
43664;SDS011;29263;48.172;11.484;2024-01-30T12:57:16;1.13;;;1.00;;
43664;SDS011;29263;48.172;11.484;2024-01-30T12:59:43;3.10;;;1.20;;
43664;SDS011;29263;48.172;11.484;2024-01-30T13:02:09;5.15;;;1.17;;
43664;SDS011;29263;48.172;11.484;2024-01-30T13:04:35;5.88;;;1.30;;
43664;SDS011;29263;48.172;11.484;2024-01-30T13:07:02;4.25;;;1.15;;
43664;SDS011;29263;48.172;11.484;2024-01-30T13:09:31;3.22;;;1.00;;
43664;SDS011;29263;48.172;11.484;2024-01-30T13:12:00;3.80;;;1.10;;
43664;SDS011;29263;48.172;11.484;2024-01-30T13:14:26;4.15;;;1.02;;
43664;SDS011;29263;48.172;11.484;2024-01-30T13:16:52;2.05;;;1.05;;
43664;SDS011;29263;48.172;11.484;2024-01-30T13:19:21;5.50;;;1.43;;
43664;SDS011;29263;48.172;11.484;2024-01-30T13:21:47;3.20;;;0.98;;
43664;SDS011;29263;48.172;11.484;2024-01-30T13:24:24;3.25;;;1.20;;
43664;SDS011;29263;48.172;11.484;2024-01-30T13:26:53;3.08;;;1.45;;
43664;SDS011;29263;48.172;11.484;2024-01-30T13:29:24;3.75;;;1.10;;
43664;SDS011;29263;48.172;11.484;2024-01-30T13:31:58;3.53;;;0.90;;
43664;SDS011;29263;48.172;11.484;2024-01-30T13:34:34;3.67;;;1.05;;
43664;SDS011;29263;48.172;11.484;2024-01-30T13:37:23;7.10;;;1.33;;
43664;SDS011;29263;48.172;11.484;2024-01-30T13:43:20;6.28;;;1.52;;
43664;SDS011;29263;48.172;11.484;2024-01-30T13:45:46;4.07;;;1.17;;
43664;SDS011;29263;48.172;11.484;2024-01-30T13:48:20;19.70;;;1.58;;
43664;SDS011;29263;48.172;11.484;2024-01-30T13:51:00;6.57;;;1.00;;
43664;SDS011;29263;48.172;11.484;2024-01-30T13:53:32;4.70;;;1.30;;
43664;SDS011;29263;48.172;11.484;2024-01-30T13:56:00;7.57;;;1.30;;
43664;SDS011;29263;48.172;11.484;2024-01-30T13:58:27;3.40;;;1.10;;
43664;SDS011;29263;48.172;11.484;2024-01-30T14:00:58;2.83;;;0.98;;
43664;SDS011;29263;48.172;11.484;2024-01-30T14:03:35;4.55;;;1.23;;
43664;SDS011;29263;48.172;11.484;2024-01-30T14:06:06;2.53;;;1.15;;
43664;SDS011;29263;48.172;11.484;2024-01-30T14:08:32;2.58;;;1.17;;
43664;SDS011;29263;48.172;11.484;2024-01-30T14:11:05;7.80;;;1.60;;
43664;SDS011;29263;48.172;11.484;2024-01-30T14:13:31;4.45;;;1.75;;
43664;SDS011;29263;48.172;11.484;2024-01-30T14:15:57;6.35;;;1.65;;
43664;SDS011;29263;48.172;11.484;2024-01-30T14:18:24;7.00;;;1.60;;
43664;SDS011;29263;48.172;11.484;2024-01-30T14:20:50;7.30;;;1.92;;
43664;SDS011;29263;48.172;11.484;2024-01-30T14:23:16;1.77;;;1.33;;
43664;SDS011;29263;48.172;11.484;2024-01-30T14:25:42;4.15;;;1.40;;
43664;SDS011;29263;48.172;11.484;2024-01-30T14:28:08;2.80;;;1.73;;
43664;SDS011;29263;48.172;11.484;2024-01-30T14:31:11;6.03;;;1.77;;
43664;SDS011;29263;48.172;11.484;2024-01-30T14:33:42;3.38;;;1.75;;
43664;SDS011;29263;48.172;11.484;2024-01-30T14:36:07;6.68;;;1.50;;
43664;SDS011;29263;48.172;11.484;2024-01-30T14:38:34;2.15;;;1.42;;
43664;SDS011;29263;48.172;11.484;2024-01-30T14:41:00;8.73;;;2.25;;
43664;SDS011;29263;48.172;11.484;2024-01-30T14:43:26;12.98;;;2.03;;